createdAt,value
2022-12-13T00:02:15.623Z,89.50
2022-12-13T00:07:17.749Z,89.70
2022-12-13T00:12:22.614Z,89.50
2022-12-13T00:17:26.157Z,89.40
2022-12-13T00:22:28.236Z,89.30
2022-12-13T00:27:30.896Z,89.30
2022-12-13T00:32:34.433Z,89.60
2022-12-13T00:37:36.538Z,89.50
2022-12-13T00:42:38.601Z,89.60
2022-12-13T00:47:42.204Z,89.40
2022-12-13T00:52:44.254Z,89.00
2022-12-13T00:57:46.308Z,88.80
2022-12-13T01:02:49.773Z,88.90
2022-12-13T01:07:51.902Z,89.20
2022-12-13T01:12:54.086Z,89.60
2022-12-13T01:17:57.657Z,89.80
2022-12-13T01:22:59.780Z,89.90
2022-12-13T01:28:01.805Z,90.00
2022-12-13T01:33:13.933Z,90.00
2022-12-13T01:38:16.929Z,89.70
2022-12-13T01:43:19.025Z,89.60
2022-12-13T01:48:27.634Z,89.50
2022-12-13T01:53:35.269Z,89.70
2022-12-13T01:58:40.538Z,89.90
2022-12-13T02:03:45.511Z,90.00
2022-12-13T02:08:47.677Z,89.90
2022-12-13T02:13:49.706Z,90.00
2022-12-13T02:19:04.667Z,90.10
2022-12-13T02:24:36.370Z,90.20
2022-12-13T02:30:15.913Z,90.30
2022-12-13T02:35:25.971Z,90.40
2022-12-13T02:40:32.635Z,90.50
2022-12-13T02:45:40.014Z,90.50
2022-12-13T02:50:44.524Z,90.40
2022-12-13T02:55:46.707Z,90.30
2022-12-13T03:00:58.135Z,90.20
2022-12-13T03:06:13.635Z,90.20
2022-12-13T03:11:18.320Z,90.10
2022-12-13T03:16:31.674Z,90.20
2022-12-13T03:21:45.731Z,90.20
2022-12-13T03:26:51.087Z,90.20
2022-12-13T03:31:54.113Z,90.30
2022-12-13T03:36:57.672Z,90.30
2022-12-13T03:42:03.357Z,90.50
2022-12-13T03:47:05.551Z,90.50
2022-12-13T03:52:09.114Z,90.30
2022-12-13T03:57:11.191Z,90.20
2022-12-13T04:02:13.340Z,90.20
2022-12-13T04:07:34.754Z,90.10
2022-12-13T04:12:37.071Z,90.20
2022-12-13T04:17:39.169Z,90.10
2022-12-13T04:22:42.663Z,90.10
2022-12-13T04:27:44.715Z,90.20
2022-12-13T04:32:47.272Z,90.20
2022-12-13T04:37:50.792Z,90.30
2022-12-13T04:42:53.990Z,90.40
2022-12-13T04:47:56.792Z,90.50
2022-12-13T04:53:00.463Z,90.40
2022-12-13T04:58:02.562Z,90.30
2022-12-13T05:03:04.738Z,90.30
2022-12-13T05:08:09.360Z,90.50
2022-12-13T05:13:11.615Z,90.60
2022-12-13T05:18:13.696Z,90.60
2022-12-13T05:23:22.608Z,90.50
2022-12-13T05:28:27.470Z,90.50
2022-12-13T05:33:31.131Z,90.50
2022-12-13T05:38:34.602Z,90.60
2022-12-13T05:43:42.494Z,90.80
2022-12-13T05:48:47.311Z,90.90
2022-12-13T05:53:53.388Z,90.80
2022-12-13T05:58:56.385Z,90.80
2022-12-13T06:03:58.594Z,90.70
2022-12-13T06:09:02.216Z,90.70
2022-12-13T06:14:04.476Z,90.60
2022-12-13T06:19:24.593Z,90.50
2022-12-13T06:24:28.191Z,90.50
2022-12-13T06:29:30.259Z,90.40
2022-12-13T06:34:35.554Z,90.40
2022-12-13T06:39:40.369Z,90.30
2022-12-13T06:44:43.488Z,90.30
2022-12-13T06:49:46.127Z,90.20
2022-12-13T06:54:50.059Z,90.20
2022-12-13T06:59:52.314Z,90.30
2022-12-13T07:04:56.365Z,90.30
2022-12-13T07:10:00.165Z,90.30
2022-12-13T07:15:02.242Z,90.40
2022-12-13T07:20:07.289Z,90.40
2022-12-13T07:25:27.683Z,90.50
2022-12-13T07:30:33.485Z,90.40
2022-12-13T07:35:36.984Z,90.40
2022-12-13T07:40:41.427Z,90.50
2022-12-13T07:45:43.732Z,90.60
2022-12-13T07:50:45.905Z,90.80
2022-12-13T07:56:00.973Z,90.80
2022-12-13T08:01:06.179Z,90.70
2022-12-13T08:06:10.832Z,90.60
2022-12-13T08:11:15.139Z,90.50
2022-12-13T08:16:26.083Z,90.40
2022-12-13T08:26:59.113Z,90.40
2022-12-13T08:32:02.498Z,90.30
2022-12-13T08:37:05.822Z,90.30
2022-12-13T08:42:16.074Z,90.30
2022-12-13T08:47:23.518Z,90.40
2022-12-13T08:52:27.885Z,90.50
2022-12-13T08:57:31.478Z,90.60
2022-12-13T09:02:37.750Z,90.90
2022-12-13T09:07:41.153Z,91.40
2022-12-13T09:12:44.737Z,91.60
2022-12-13T09:17:52.330Z,91.40
2022-12-13T09:23:01.321Z,91.10
2022-12-13T09:28:07.402Z,90.90
2022-12-13T09:33:18.320Z,90.70
2022-12-13T09:38:31.762Z,90.60
2022-12-13T09:43:42.869Z,90.00
2022-12-13T09:48:48.393Z,89.20
2022-12-13T09:53:53.122Z,89.40
2022-12-13T09:58:57.223Z,88.70
2022-12-13T10:04:01.222Z,88.40
2022-12-13T10:09:06.807Z,88.10
2022-12-13T10:14:16.731Z,88.40
2022-12-13T10:19:28.955Z,88.40
2022-12-13T10:24:50.474Z,89.00
2022-12-13T10:30:07.459Z,88.10
2022-12-13T10:35:19.862Z,87.80
2022-12-13T10:40:32.433Z,87.80
2022-12-13T10:45:39.895Z,88.60
2022-12-13T10:50:42.285Z,88.10
2022-12-13T10:55:45.666Z,87.70
2022-12-13T11:00:49.564Z,87.50
2022-12-13T11:06:03.806Z,87.30
2022-12-13T11:11:08.043Z,86.80
2022-12-13T11:16:23.295Z,87.00
2022-12-13T11:21:27.899Z,85.90
2022-12-13T11:26:32.554Z,85.90
2022-12-13T11:31:43.816Z,85.70
2022-12-13T11:36:55.740Z,85.70
2022-12-13T11:42:05.088Z,84.60
2022-12-13T11:47:18.292Z,83.70
2022-12-13T11:52:27.980Z,83.30
2022-12-13T11:57:41.489Z,82.80
2022-12-13T12:02:49.256Z,83.00
2022-12-13T12:08:31.065Z,83.40
2022-12-13T12:13:24.498Z,83.50
2022-12-13T12:18:28.786Z,83.50
2022-12-13T12:23:52.604Z,83.60
2022-12-13T12:29:21.769Z,83.70
2022-12-13T12:34:36.166Z,84.30
2022-12-13T12:39:51.522Z,84.20
2022-12-13T12:45:10.637Z,83.10
2022-12-13T12:50:43.031Z,82.70
2022-12-13T12:55:51.944Z,81.90
2022-12-13T13:01:07.667Z,82.30
2022-12-13T13:06:15.561Z,81.90
2022-12-13T13:11:25.232Z,81.40
2022-12-13T13:16:38.213Z,81.00
2022-12-13T13:21:47.067Z,81.60
2022-12-13T13:26:52.380Z,81.40
2022-12-13T13:32:01.970Z,81.60
2022-12-13T13:37:59.308Z,82.10
2022-12-13T13:43:13.626Z,82.90
2022-12-13T13:48:28.389Z,83.20
2022-12-13T13:54:02.543Z,83.30
2022-12-13T13:59:49.098Z,83.80
2022-12-13T14:05:14.591Z,84.20
2022-12-13T14:10:30.372Z,84.70
2022-12-13T14:16:08.777Z,84.80
2022-12-13T14:21:21.968Z,85.30
2022-12-13T14:26:38.091Z,85.50
2022-12-13T14:31:43.939Z,85.60
2022-12-13T14:36:55.603Z,85.40
2022-12-13T14:42:00.783Z,85.50
2022-12-13T14:47:06.048Z,85.50
2022-12-13T14:52:26.821Z,85.90
2022-12-13T14:57:33.393Z,86.30
2022-12-13T15:02:35.663Z,86.20
2022-12-13T15:07:40.410Z,86.40
2022-12-13T15:12:45.530Z,86.70
2022-12-13T15:17:48.441Z,87.10
2022-12-13T15:22:58.818Z,87.30
2022-12-13T15:28:03.489Z,87.40
2022-12-13T15:33:08.401Z,87.40
2022-12-13T15:38:14.379Z,87.50
2022-12-13T15:43:38.175Z,87.50
2022-12-13T15:48:48.515Z,87.60
2022-12-13T15:54:17.726Z,87.60
2022-12-13T15:59:27.832Z,88.00
2022-12-13T16:04:31.906Z,88.20
2022-12-13T16:09:36.533Z,88.30
2022-12-13T16:14:49.630Z,88.50
2022-12-13T16:19:53.038Z,88.70
2022-12-13T16:24:55.209Z,88.60
2022-12-13T16:29:58.824Z,88.70
2022-12-13T16:35:00.941Z,88.80
2022-12-13T16:40:24.200Z,89.70
2022-12-13T16:45:41.713Z,88.90
2022-12-13T16:50:47.024Z,88.90
2022-12-13T16:55:58.966Z,88.90
2022-12-13T17:01:08.745Z,88.90
2022-12-13T17:06:12.702Z,88.80
2022-12-13T17:11:18.012Z,88.80
2022-12-13T17:16:22.126Z,88.80
2022-12-13T17:21:26.287Z,89.10
2022-12-13T17:26:29.193Z,89.00
2022-12-13T17:31:35.783Z,89.00
2022-12-13T17:36:38.671Z,88.90
2022-12-13T17:41:40.800Z,88.80
2022-12-13T17:46:44.333Z,88.90
2022-12-13T17:51:57.781Z,88.80
2022-12-13T17:56:59.915Z,88.80
2022-12-13T18:02:03.518Z,88.80
2022-12-13T18:07:05.623Z,88.90
2022-12-13T18:12:08.105Z,89.10
2022-12-13T18:17:12.495Z,89.00
2022-12-13T18:22:15.342Z,89.00
2022-12-13T18:27:17.477Z,89.00
2022-12-13T18:32:21.085Z,88.90
2022-12-13T18:37:23.300Z,89.20
2022-12-13T18:42:25.411Z,89.10
2022-12-13T18:47:29.734Z,89.10
2022-12-13T18:52:33.667Z,89.10
2022-12-13T18:57:37.706Z,89.20
2022-12-13T19:02:42.904Z,89.30
2022-12-13T19:07:45.058Z,89.40
2022-12-13T19:12:47.171Z,89.40
2022-12-13T19:17:51.141Z,89.40
2022-12-13T19:22:53.681Z,89.50
2022-12-13T19:27:55.972Z,89.50
2022-12-13T19:32:59.516Z,89.50
2022-12-13T19:38:01.916Z,89.40
2022-12-13T19:43:04.562Z,89.40
2022-12-13T19:48:09.802Z,89.50
2022-12-13T19:53:12.983Z,89.50
2022-12-13T19:58:16.216Z,89.60
2022-12-13T20:03:20.433Z,89.50
2022-12-13T20:08:24.206Z,89.40
2022-12-13T20:13:30.884Z,89.60
2022-12-13T20:18:35.077Z,89.50
2022-12-13T20:23:37.792Z,89.40
2022-12-13T20:28:41.154Z,89.30
2022-12-13T20:33:45.255Z,89.00
2022-12-13T20:38:48.163Z,89.00
2022-12-13T20:43:52.210Z,88.80
2022-12-13T20:48:57.151Z,88.70
2022-12-13T20:54:02.194Z,88.70
2022-12-13T20:59:05.839Z,88.50
2022-12-13T21:04:15.525Z,88.30
2022-12-13T21:09:18.947Z,88.30
2022-12-13T21:14:25.568Z,88.40
2022-12-13T21:19:35.837Z,88.60
2022-12-13T21:24:39.988Z,88.60
2022-12-13T21:29:42.290Z,88.80
2022-12-13T21:34:45.852Z,88.90
2022-12-13T21:39:47.905Z,89.10
2022-12-13T21:44:50.111Z,89.20
2022-12-13T21:49:53.578Z,89.30
2022-12-13T21:55:15.221Z,89.50
2022-12-13T22:00:17.762Z,89.50
2022-12-13T22:05:21.288Z,89.60
2022-12-13T22:10:23.402Z,89.70
2022-12-13T22:15:25.543Z,89.70
2022-12-13T22:20:29.153Z,89.70
2022-12-13T22:25:31.336Z,89.80
2022-12-13T22:30:33.380Z,89.70
2022-12-13T22:35:37.987Z,89.70
2022-12-13T22:40:40.122Z,89.70
2022-12-13T22:45:42.281Z,89.60
2022-12-13T22:50:45.869Z,89.70
2022-12-13T22:55:47.982Z,89.60
2022-12-13T23:00:50.196Z,89.60
2022-12-13T23:05:53.846Z,89.60
2022-12-13T23:10:59.249Z,89.60
2022-12-13T23:16:05.955Z,89.60
2022-12-13T23:21:09.241Z,89.60
2022-12-13T23:26:13.191Z,89.80
2022-12-13T23:31:16.491Z,89.60
2022-12-13T23:36:22.068Z,89.60
2022-12-13T23:41:29.466Z,89.60
2022-12-13T23:46:37.067Z,89.70
2022-12-13T23:51:40.561Z,89.70
2022-12-13T23:56:42.658Z,89.30
